createdAt,value
2023-05-22T00:03:36.797Z,17.40
2023-05-22T00:08:39.632Z,18.60
2023-05-22T00:13:42.516Z,19.80
2023-05-22T00:18:46.646Z,20.00
2023-05-22T00:23:49.424Z,19.60
2023-05-22T00:28:52.240Z,18.80
2023-05-22T00:33:56.447Z,18.20
2023-05-22T00:38:59.650Z,17.00
2023-05-22T00:44:03.331Z,18.80
2023-05-22T00:49:07.633Z,19.40
2023-05-22T00:54:10.500Z,19.20
2023-05-22T00:59:13.311Z,19.00
2023-05-22T01:04:18.738Z,18.80
2023-05-22T01:09:21.687Z,17.60
2023-05-22T01:14:28.664Z,18.40
2023-05-22T01:19:47.439Z,17.00
2023-05-22T01:24:58.288Z,18.40
2023-05-22T01:30:11.294Z,15.00
2023-05-22T01:35:16.479Z,17.40
2023-05-22T01:40:19.741Z,16.00
2023-05-22T01:45:22.874Z,18.40
2023-05-22T01:50:27.959Z,16.20
2023-05-22T01:55:35.840Z,16.80
2023-05-22T02:00:38.796Z,18.20
2023-05-22T02:05:43.113Z,16.80
2023-05-22T02:10:45.907Z,18.40
2023-05-22T02:15:49.147Z,16.00
2023-05-22T02:20:53.671Z,17.80
2023-05-22T02:25:56.673Z,16.00
2023-05-22T02:30:59.547Z,15.20
2023-05-22T02:36:04.219Z,17.60
2023-05-22T02:41:08.050Z,15.00
2023-05-22T02:46:10.978Z,15.80
2023-05-22T02:51:15.153Z,17.60
2023-05-22T02:56:18.815Z,15.60
2023-05-22T03:01:22.189Z,17.80
2023-05-22T03:06:26.592Z,15.00
2023-05-22T03:11:30.047Z,14.40
2023-05-22T03:16:34.439Z,16.20
2023-05-22T03:21:38.835Z,16.00
2023-05-22T03:26:41.873Z,15.40
2023-05-22T03:31:48.906Z,15.40
2023-05-22T03:36:53.341Z,20.00
2023-05-22T03:41:57.017Z,23.60
2023-05-22T03:47:01.074Z,23.75
2023-05-22T03:52:05.954Z,26.25
2023-05-22T03:57:08.967Z,28.75
2023-05-22T04:02:13.089Z,27.33
2023-05-22T04:07:18.478Z,27.25
2023-05-22T04:12:21.563Z,26.75
2023-05-22T04:17:27.296Z,28.50
2023-05-22T04:22:31.516Z,29.25
2023-05-22T04:27:35.535Z,27.50
2023-05-22T04:32:38.465Z,28.00
2023-05-22T04:37:45.529Z,31.25
2023-05-22T04:42:48.481Z,29.00
2023-05-22T04:47:52.484Z,30.50
2023-05-22T04:52:59.535Z,26.00
2023-05-22T04:58:02.862Z,28.75
2023-05-22T05:03:08.433Z,27.50
2023-05-22T05:08:12.791Z,29.50
2023-05-22T05:13:16.137Z,28.00
2023-05-22T05:18:21.779Z,31.00
2023-05-22T05:23:26.084Z,30.00
2023-05-22T05:28:30.547Z,26.00
2023-05-22T05:33:33.707Z,26.25
2023-05-22T05:39:03.858Z,27.25
2023-05-22T05:44:10.124Z,26.00
2023-05-22T05:49:13.988Z,26.75
2023-05-22T05:54:19.813Z,27.00
2023-05-22T05:59:24.409Z,24.50
2023-05-22T06:04:56.189Z,26.00
2023-05-22T06:10:01.142Z,23.25
2023-05-22T06:15:13.904Z,27.00
2023-05-22T06:20:16.821Z,23.50
2023-05-22T06:25:21.261Z,25.00
2023-05-22T06:30:43.517Z,26.00
2023-05-22T06:35:51.083Z,28.00
2023-05-22T06:40:56.792Z,21.40
2023-05-22T06:46:02.678Z,22.00
2023-05-22T06:51:15.626Z,23.25
2023-05-22T06:56:20.734Z,23.25
2023-05-22T07:01:44.207Z,22.75
2023-05-22T07:06:50.776Z,24.80
2023-05-22T07:11:56.021Z,22.40
2023-05-22T07:16:59.159Z,22.40
2023-05-22T07:22:06.956Z,22.25
2023-05-22T07:27:14.293Z,21.60
2023-05-22T07:32:17.331Z,21.20
2023-05-22T07:37:22.198Z,22.20
2023-05-22T07:42:28.104Z,19.00
2023-05-22T07:47:32.126Z,22.50
2023-05-22T07:52:35.756Z,20.40
2023-05-22T07:57:41.593Z,20.00
2023-05-22T08:02:53.724Z,20.00
2023-05-22T08:07:56.876Z,23.00
2023-05-22T08:13:05.982Z,19.60
2023-05-22T08:18:09.287Z,22.20
2023-05-22T08:23:12.681Z,20.75
2023-05-22T08:28:16.981Z,22.00
2023-05-22T08:33:20.049Z,22.20
2023-05-22T08:38:23.138Z,19.00
2023-05-22T08:43:28.512Z,20.20
2023-05-22T08:48:33.796Z,21.40
2023-05-22T08:53:37.452Z,22.20
2023-05-22T08:58:41.791Z,20.80
2023-05-22T09:03:44.825Z,22.00
2023-05-22T09:08:48.525Z,20.80
2023-05-22T09:13:54.191Z,18.40
2023-05-22T09:18:57.305Z,16.80
2023-05-22T09:24:03.139Z,18.60
2023-05-22T09:29:08.061Z,20.20
2023-05-22T09:34:11.378Z,18.80
2023-05-22T09:39:14.356Z,18.00
2023-05-22T09:44:18.695Z,23.00
2023-05-22T09:49:21.567Z,19.40
2023-05-22T09:54:24.578Z,19.00
2023-05-22T09:59:30.108Z,16.60
2023-05-22T10:04:34.066Z,17.80
2023-05-22T10:09:37.038Z,19.00
2023-05-22T10:14:41.377Z,18.00
2023-05-22T10:19:46.047Z,17.60
2023-05-22T10:24:49.700Z,20.60
2023-05-22T10:29:55.911Z,20.00
2023-05-22T10:35:03.269Z,20.00
2023-05-22T10:40:08.946Z,19.00
2023-05-22T10:45:13.634Z,20.40
2023-05-22T10:50:18.688Z,19.40
2023-05-22T10:55:23.042Z,19.00
2023-05-22T11:00:27.580Z,18.20
2023-05-22T11:05:37.471Z,19.00
2023-05-22T11:10:56.207Z,19.60
2023-05-22T11:16:00.565Z,18.60
2023-05-22T11:21:04.550Z,18.40
2023-05-22T11:26:26.442Z,18.60
2023-05-22T11:31:32.224Z,18.80
2023-05-22T11:36:35.196Z,19.00
2023-05-22T11:41:38.227Z,19.00
2023-05-22T11:46:42.532Z,17.80
2023-05-22T11:51:45.658Z,19.00
2023-05-22T11:56:48.657Z,18.40
2023-05-22T12:01:53.089Z,19.00
2023-05-22T12:06:56.633Z,18.40
2023-05-22T12:11:59.800Z,18.60
2023-05-22T12:17:05.169Z,17.60
2023-05-22T12:22:08.960Z,17.00
2023-05-22T12:27:12.241Z,16.40
2023-05-22T12:32:18.426Z,17.40
2023-05-22T12:37:21.784Z,16.00
2023-05-22T12:42:24.983Z,16.20
2023-05-22T12:47:30.146Z,17.80
2023-05-22T12:52:33.154Z,17.00
2023-05-22T12:57:35.984Z,15.20
2023-05-22T13:02:40.572Z,15.00
2023-05-22T13:07:43.701Z,14.80
2023-05-22T13:12:48.433Z,13.80
2023-05-22T13:17:52.744Z,14.40
2023-05-22T13:22:55.677Z,16.00
2023-05-22T13:27:58.767Z,14.20
2023-05-22T13:33:03.149Z,14.40
2023-05-22T13:38:06.294Z,15.00
2023-05-22T13:43:09.368Z,14.80
2023-05-22T13:48:14.333Z,14.20
2023-05-22T13:53:17.578Z,17.60
2023-05-22T13:58:20.675Z,15.80
2023-05-22T14:03:25.096Z,14.20
2023-05-22T14:08:29.096Z,13.00
2023-05-22T14:13:32.354Z,16.00
2023-05-22T14:18:36.563Z,13.60
2023-05-22T14:23:39.408Z,15.40
2023-05-22T14:28:42.255Z,13.80
2023-05-22T14:33:46.594Z,14.80
2023-05-22T14:38:49.511Z,15.00
2023-05-22T14:43:52.408Z,12.40
2023-05-22T14:48:56.580Z,15.00
2023-05-22T14:53:59.450Z,11.60
2023-05-22T14:59:02.376Z,15.00
2023-05-22T15:04:08.018Z,13.00
2023-05-22T15:09:11.727Z,13.60
2023-05-22T15:14:15.227Z,12.40
2023-05-22T15:19:19.703Z,12.80
2023-05-22T15:24:22.858Z,12.00
2023-05-22T15:29:25.796Z,13.40
2023-05-22T15:34:30.000Z,12.20
2023-05-22T15:39:32.945Z,12.40
2023-05-22T15:44:36.015Z,13.00
2023-05-22T15:49:40.309Z,12.00
2023-05-22T15:54:43.205Z,11.60
2023-05-22T15:59:47.430Z,12.20
2023-05-22T16:04:52.018Z,13.20
2023-05-22T16:09:55.134Z,11.40
2023-05-22T16:15:00.596Z,18.20
2023-05-22T16:20:07.054Z,16.40
2023-05-22T16:25:11.265Z,18.40
2023-05-22T16:30:17.108Z,17.20
2023-05-22T16:35:22.171Z,16.40
2023-05-22T16:40:25.164Z,16.60
2023-05-22T16:45:28.161Z,17.00
2023-05-22T16:50:32.668Z,17.00
2023-05-22T16:55:35.704Z,16.60
2023-05-22T17:00:40.506Z,16.00
2023-05-22T17:05:45.167Z,17.60
2023-05-22T17:10:48.161Z,14.80
2023-05-22T17:15:51.289Z,15.40
2023-05-22T17:20:55.724Z,17.20
2023-05-22T17:25:58.543Z,14.60
2023-05-22T17:31:02.176Z,14.20
2023-05-22T17:36:07.834Z,16.40
2023-05-22T17:41:11.013Z,13.80
2023-05-22T17:46:14.540Z,13.80
2023-05-22T17:51:18.825Z,15.20
2023-05-22T17:56:22.544Z,16.20
2023-05-22T18:01:27.123Z,15.80
2023-05-22T18:06:31.868Z,12.80
2023-05-22T18:11:34.968Z,14.80
2023-05-22T18:16:37.951Z,14.60
2023-05-22T18:21:43.096Z,12.60
2023-05-22T18:26:45.987Z,13.00
2023-05-22T18:31:48.917Z,12.80
2023-05-22T18:36:53.853Z,12.20
2023-05-22T18:41:58.576Z,12.20
2023-05-22T18:47:01.767Z,12.40
2023-05-22T18:52:06.413Z,13.20
2023-05-22T18:57:09.301Z,12.20
2023-05-22T19:02:12.116Z,12.80
2023-05-22T19:07:16.550Z,11.60
2023-05-22T19:12:19.535Z,12.00
2023-05-22T19:17:22.436Z,14.20
2023-05-22T19:22:26.632Z,12.00
2023-05-22T19:27:29.477Z,12.00
2023-05-22T19:32:32.452Z,11.80
2023-05-22T19:37:38.533Z,12.00
2023-05-22T19:42:42.440Z,10.80
2023-05-22T19:47:45.471Z,11.80
2023-05-22T19:52:49.720Z,13.00
2023-05-22T19:57:52.538Z,11.20
2023-05-22T20:02:55.614Z,9.80
2023-05-22T20:08:00.290Z,13.40
2023-05-22T20:13:04.834Z,11.40
2023-05-22T20:18:08.524Z,11.00
2023-05-22T20:23:12.726Z,10.80
2023-05-22T20:28:15.966Z,11.00
2023-05-22T20:33:19.419Z,10.00
2023-05-22T20:38:23.752Z,11.00
2023-05-22T20:43:30.732Z,11.00
2023-05-22T20:48:33.974Z,9.00
2023-05-22T20:53:38.172Z,11.40
2023-05-22T20:58:41.120Z,11.00
2023-05-22T21:03:44.147Z,11.00
2023-05-22T21:08:48.469Z,12.40
2023-05-22T21:13:51.532Z,11.00
2023-05-22T21:18:54.366Z,11.60
2023-05-22T21:23:58.587Z,9.00
2023-05-22T21:29:02.646Z,11.60
2023-05-22T21:34:05.509Z,10.80
2023-05-22T21:39:09.772Z,10.60
2023-05-22T21:44:12.651Z,11.40
2023-05-22T21:49:16.058Z,11.80
2023-05-22T21:54:20.353Z,11.00
2023-05-22T21:59:23.227Z,10.00
2023-05-22T22:04:26.236Z,9.00
2023-05-22T22:09:30.424Z,11.80
2023-05-22T22:14:33.356Z,10.40
2023-05-22T22:19:36.349Z,9.20
2023-05-22T22:24:40.916Z,11.20
2023-05-22T22:29:44.032Z,9.60
2023-05-22T22:34:47.038Z,10.60
2023-05-22T22:39:51.286Z,11.00
2023-05-22T22:44:54.330Z,10.40
2023-05-22T22:49:57.904Z,9.80
2023-05-22T22:55:02.077Z,11.00
2023-05-22T23:00:06.054Z,10.20
2023-05-22T23:05:09.829Z,8.60
2023-05-22T23:10:14.458Z,8.40
2023-05-22T23:15:17.394Z,12.00
2023-05-22T23:20:20.438Z,10.80
2023-05-22T23:25:24.795Z,10.80
2023-05-22T23:30:27.726Z,11.00
2023-05-22T23:35:31.124Z,11.60
2023-05-22T23:40:35.509Z,10.20
2023-05-22T23:45:38.587Z,10.00
2023-05-22T23:50:41.730Z,11.00
2023-05-22T23:55:45.982Z,11.40
